Time;durP1;ratioP1;P1;durP2;ratioP2;P2;SDS_P1;SDS_P2;PMS_P1;PMS_P2;Temp;Humidity;BMP_temperature;BMP_pressure;BME280_temperature;BME280_humidity;BME280_pressure;Samples;Min_cycle;Max_cycle;Signal;HPM_P1;HPM_P2
2021/07/06 00:02:20;;;;;;;7.43;6.05;;;18.20;99.90;;;;;;4774890;29;20055;-77
2021/07/06 00:04:48;;;;;;;9.75;8.43;;;18.20;99.90;;;;;;4772276;29;20058;-77
2021/07/06 00:07:19;;;;;;;9.32;7.00;;;18.20;99.90;;;;;;4786596;29;20038;-77
2021/07/06 00:09:46;;;;;;;8.95;7.55;;;18.20;99.90;;;;;;4795096;29;20487;-77
2021/07/06 00:12:13;;;;;;;8.10;7.10;;;18.20;99.90;;;;;;4784142;29;20031;-77
2021/07/06 00:14:39;;;;;;;7.50;5.90;;;18.30;99.90;;;;;;4796664;29;20050;-77
2021/07/06 00:17:06;;;;;;;10.63;6.47;;;18.20;99.90;;;;;;4785577;29;20046;-77
2021/07/06 00:19:33;;;;;;;7.35;6.50;;;18.30;99.90;;;;;;4801026;29;20411;-77
2021/07/06 00:22:00;;;;;;;7.03;6.32;;;18.30;99.90;;;;;;4802693;29;20050;-76
2021/07/06 00:24:26;;;;;;;5.15;4.38;;;18.20;99.90;;;;;;4803560;29;20117;-77
2021/07/06 00:26:53;;;;;;;6.40;5.38;;;18.20;99.90;;;;;;4787574;29;20050;-76
2021/07/06 00:29:19;;;;;;;9.75;6.97;;;18.20;99.90;;;;;;4761739;29;20049;-77
2021/07/06 00:31:46;;;;;;;9.75;6.70;;;18.20;99.90;;;;;;4773660;29;20883;-77
2021/07/06 00:34:12;;;;;;;5.10;4.60;;;18.20;99.90;;;;;;4790018;29;20387;-77
2021/07/06 00:36:39;;;;;;;4.45;3.35;;;18.20;99.90;;;;;;4785334;29;20067;-77
2021/07/06 00:39:06;;;;;;;3.38;2.83;;;18.20;99.90;;;;;;4787293;29;20058;-77
2021/07/06 00:41:37;;;;;;;5.35;2.45;;;18.20;99.90;;;;;;4785221;29;20426;-77
2021/07/06 00:44:04;;;;;;;2.55;2.00;;;18.30;99.90;;;;;;4738129;29;20444;-77
2021/07/06 00:46:31;;;;;;;3.63;1.90;;;18.20;99.90;;;;;;4759794;29;20046;-77
2021/07/06 00:48:57;;;;;;;4.68;1.90;;;18.30;99.90;;;;;;4786415;29;20054;-77
2021/07/06 00:51:23;;;;;;;2.70;2.15;;;18.30;99.90;;;;;;4756548;29;20050;-79
2021/07/06 00:53:51;;;;;;;3.25;1.48;;;18.30;99.90;;;;;;4739460;29;20510;-79
2021/07/06 00:56:18;;;;;;;2.15;1.60;;;18.40;99.90;;;;;;4744575;29;20062;-79
2021/07/06 00:58:48;;;;;;;2.13;1.38;;;18.40;99.90;;;;;;4769827;29;20042;-79
2021/07/06 01:01:15;;;;;;;4.80;1.95;;;18.40;99.90;;;;;;4772273;29;20068;-79
2021/07/06 01:03:43;;;;;;;2.92;1.63;;;18.40;99.90;;;;;;4753815;29;20070;-80
2021/07/06 01:06:11;;;;;;;3.55;1.63;;;18.50;99.90;;;;;;4803241;29;20057;-79
2021/07/06 01:08:38;;;;;;;5.18;1.65;;;18.50;99.90;;;;;;4772057;29;20046;-79
2021/07/06 01:11:05;;;;;;;2.08;1.00;;;18.50;99.90;;;;;;4801951;29;20039;-79
2021/07/06 01:13:34;;;;;;;3.95;1.63;;;18.40;99.90;;;;;;4783939;29;20518;-79
2021/07/06 01:16:01;;;;;;;1.98;1.05;;;18.40;99.90;;;;;;4800237;29;20039;-79
2021/07/06 01:18:27;;;;;;;2.05;0.95;;;18.40;99.90;;;;;;4783618;29;20507;-79
2021/07/06 01:20:56;;;;;;;2.17;0.90;;;18.40;99.90;;;;;;4785660;29;20495;-79
2021/07/06 01:23:29;;;;;;;2.58;1.10;;;18.40;99.90;;;;;;4789833;29;20050;-79
2021/07/06 01:26:04;;;;;;;4.10;1.02;;;18.50;99.90;;;;;;4802420;29;20039;-79
2021/07/06 01:28:30;;;;;;;2.03;0.88;;;18.40;99.90;;;;;;4785722;29;20035;-79
2021/07/06 01:30:57;;;;;;;2.35;0.95;;;18.40;99.90;;;;;;4792137;29;20776;-79
2021/07/06 01:33:29;;;;;;;3.53;1.33;;;18.50;99.90;;;;;;4773763;29;20411;-79
2021/07/06 01:36:04;;;;;;;2.80;1.02;;;18.50;99.90;;;;;;4788820;29;20050;-79
2021/07/06 01:38:31;;;;;;;1.20;0.77;;;18.50;99.90;;;;;;4783246;29;20045;-79
2021/07/06 01:41:00;;;;;;;1.35;0.75;;;18.50;99.90;;;;;;4792568;29;20046;-79
2021/07/06 01:43:27;;;;;;;1.35;0.70;;;18.50;99.90;;;;;;4785802;29;20050;-79
2021/07/06 01:45:53;;;;;;;3.38;0.80;;;18.50;99.90;;;;;;4786727;29;20046;-79
2021/07/06 01:48:20;;;;;;;2.25;0.95;;;18.50;99.90;;;;;;4805997;29;20046;-79
2021/07/06 01:50:46;;;;;;;1.30;0.60;;;18.50;99.90;;;;;;4791399;29;20513;-79
2021/07/06 01:53:22;;;;;;;2.83;0.80;;;18.50;99.90;;;;;;4788218;29;20042;-79
2021/07/06 01:55:52;;;;;;;2.78;0.70;;;18.50;99.90;;;;;;4783631;29;20071;-79
2021/07/06 01:58:20;;;;;;;1.85;0.80;;;18.50;99.90;;;;;;4772228;29;20050;-79
2021/07/06 02:00:54;;;;;;;2.30;0.63;;;18.50;99.90;;;;;;4784926;29;20053;-79
2021/07/06 02:03:20;;;;;;;1.27;0.60;;;18.50;99.90;;;;;;4785580;29;20039;-79
2021/07/06 02:05:49;;;;;;;2.63;0.77;;;18.50;99.90;;;;;;4783536;29;20069;-79
2021/07/06 02:08:18;;;;;;;2.25;0.50;;;18.50;99.90;;;;;;4754998;29;20054;-79
2021/07/06 02:10:47;;;;;;;1.77;0.30;;;18.50;99.90;;;;;;4775562;29;20051;-79
2021/07/06 02:13:20;;;;;;;0.50;0.30;;;18.50;99.90;;;;;;4773949;29;20066;-79
2021/07/06 02:15:48;;;;;;;1.15;0.38;;;18.50;99.90;;;;;;4788703;29;20055;-78
2021/07/06 02:18:22;;;;;;;0.75;0.30;;;18.50;99.90;;;;;;4784827;29;20082;-79
2021/07/06 02:20:50;;;;;;;1.20;0.38;;;18.50;99.90;;;;;;4769375;29;20388;-79
2021/07/06 02:23:17;;;;;;;0.60;0.25;;;18.50;99.90;;;;;;4800667;29;20046;-79
2021/07/06 02:25:44;;;;;;;0.73;0.30;;;18.50;99.90;;;;;;4790453;29;20071;-79
2021/07/06 02:28:11;;;;;;;1.52;0.40;;;18.50;99.90;;;;;;4797066;29;20066;-79
2021/07/06 02:30:38;;;;;;;0.95;0.50;;;18.40;99.90;;;;;;4788747;29;20035;-79
2021/07/06 02:33:04;;;;;;;1.00;0.40;;;18.30;99.90;;;;;;4801447;29;20913;-79
2021/07/06 02:35:31;;;;;;;0.85;0.40;;;18.30;99.90;;;;;;4787887;29;20058;-79
2021/07/06 02:37:59;;;;;;;2.03;0.40;;;18.20;99.90;;;;;;4750819;29;20063;-79
2021/07/06 02:40:26;;;;;;;0.60;0.40;;;18.10;99.90;;;;;;4799153;29;20042;-79
2021/07/06 02:42:54;;;;;;;1.45;0.50;;;18.00;99.90;;;;;;4783815;29;20055;-79
2021/07/06 02:45:21;;;;;;;1.55;0.50;;;18.00;99.90;;;;;;4788898;29;20061;-78
2021/07/06 02:47:48;;;;;;;0.90;0.38;;;18.00;99.90;;;;;;4786425;29;20227;-79
2021/07/06 02:50:16;;;;;;;0.80;0.50;;;17.90;99.90;;;;;;4803116;29;20057;-79
2021/07/06 02:52:43;;;;;;;1.00;0.50;;;17.90;99.90;;;;;;4789174;29;20031;-78
2021/07/06 02:55:11;;;;;;;1.38;0.40;;;17.90;99.90;;;;;;4783748;29;20054;-79
2021/07/06 02:57:37;;;;;;;0.90;0.50;;;17.90;99.90;;;;;;4786012;29;20039;-79
2021/07/06 03:00:23;;;;;;;1.08;0.40;;;17.90;99.90;;;;;;4780337;29;20460;-78
2021/07/06 03:02:59;;;;;;;3.63;0.40;;;17.80;99.90;;;;;;4786614;29;20066;-79
2021/07/06 03:05:31;;;;;;;0.90;0.47;;;17.80;99.90;;;;;;4784553;29;20055;-78
2021/07/06 03:07:58;;;;;;;3.33;0.85;;;17.80;99.90;;;;;;4771781;29;20057;-78
2021/07/06 03:10:36;;;;;;;1.48;0.45;;;17.70;99.90;;;;;;4769293;29;20043;-78
2021/07/06 03:13:03;;;;;;;1.52;0.70;;;17.70;99.90;;;;;;4790101;29;20041;-78
2021/07/06 03:15:31;;;;;;;2.00;0.75;;;17.70;99.90;;;;;;4806034;29;20053;-78
2021/07/06 03:17:59;;;;;;;1.25;0.63;;;17.60;99.90;;;;;;4791192;29;20513;-78
2021/07/06 03:20:27;;;;;;;2.47;0.60;;;17.70;99.90;;;;;;4776518;29;20058;-78
2021/07/06 03:22:55;;;;;;;1.60;0.77;;;17.70;99.90;;;;;;4791189;29;20065;-78
2021/07/06 03:25:23;;;;;;;2.08;0.90;;;17.60;99.90;;;;;;4776682;29;20057;-77
2021/07/06 03:27:50;;;;;;;3.45;0.77;;;17.70;99.90;;;;;;4777326;29;20050;-78
2021/07/06 03:30:19;;;;;;;1.55;0.70;;;17.70;99.90;;;;;;4808345;29;20045;-78
2021/07/06 03:32:47;;;;;;;0.90;0.60;;;17.70;99.90;;;;;;4780313;29;20046;-78
2021/07/06 03:35:14;;;;;;;1.30;0.50;;;17.70;99.90;;;;;;4790546;29;20051;-78
2021/07/06 03:37:41;;;;;;;2.35;0.60;;;17.60;99.90;;;;;;4777648;29;20039;-78
2021/07/06 03:40:09;;;;;;;1.13;0.50;;;17.60;99.90;;;;;;4786716;29;20415;-78
2021/07/06 03:42:37;;;;;;;1.35;0.60;;;17.60;99.90;;;;;;4791222;29;20364;-78
2021/07/06 03:45:06;;;;;;;1.30;0.50;;;17.60;99.90;;;;;;4791141;29;20055;-78
2021/07/06 03:47:32;;;;;;;0.95;0.60;;;17.60;99.90;;;;;;4807627;29;20039;-78
2021/07/06 03:49:59;;;;;;;0.82;0.55;;;17.60;99.90;;;;;;4790377;29;20406;-78
2021/07/06 03:52:25;;;;;;;0.95;0.50;;;17.70;99.90;;;;;;4790768;29;20053;-78
2021/07/06 03:54:51;;;;;;;1.23;0.70;;;17.70;99.90;;;;;;4758723;29;20077;-78
2021/07/06 03:57:31;;;;;;;4.45;1.15;;;17.70;99.90;;;;;;4787399;29;20043;-78
2021/07/06 04:00:07;;;;;;;2.22;0.80;;;17.70;99.90;;;;;;4784204;29;20470;-79
2021/07/06 04:02:38;;;;;;;1.05;0.50;;;17.70;99.90;;;;;;4809421;29;20126;-78
2021/07/06 04:05:07;;;;;;;1.00;0.50;;;17.80;99.90;;;;;;4789707;29;20066;-78
2021/07/06 04:07:35;;;;;;;1.02;0.57;;;17.90;99.90;;;;;;4788916;29;20065;-78
2021/07/06 04:10:04;;;;;;;1.35;0.57;;;18.00;99.90;;;;;;4799455;29;20510;-78
2021/07/06 04:12:30;;;;;;;1.85;0.60;;;18.00;99.90;;;;;;4808402;29;20034;-78
2021/07/06 04:14:57;;;;;;;1.38;0.65;;;18.00;99.90;;;;;;4806045;29;20049;-78
2021/07/06 04:17:23;;;;;;;2.30;0.73;;;18.10;99.90;;;;;;4774082;29;20621;-77
2021/07/06 04:19:50;;;;;;;3.13;0.50;;;18.10;99.90;;;;;;4782514;29;20382;-78
2021/07/06 04:22:16;;;;;;;1.20;0.60;;;18.10;99.90;;;;;;4776815;29;20072;-78
2021/07/06 04:24:43;;;;;;;1.52;0.60;;;18.20;99.90;;;;;;4800386;29;20047;-78
2021/07/06 04:27:09;;;;;;;4.22;0.60;;;18.20;99.90;;;;;;4788459;29;20043;-78
2021/07/06 04:29:35;;;;;;;1.70;0.55;;;18.30;99.90;;;;;;4782056;29;20057;-78
2021/07/06 04:32:02;;;;;;;1.70;0.45;;;18.30;99.90;;;;;;4806640;29;20038;-78
2021/07/06 04:34:28;;;;;;;1.48;0.60;;;18.40;99.90;;;;;;4770126;29;20043;-77
2021/07/06 04:36:55;;;;;;;5.45;0.65;;;18.40;99.90;;;;;;4770877;29;20058;-78
2021/07/06 04:39:21;;;;;;;2.08;0.60;;;18.40;99.90;;;;;;4781982;29;20042;-78
2021/07/06 04:41:48;;;;;;;1.98;0.50;;;18.50;99.90;;;;;;4792373;29;20042;-78
2021/07/06 04:44:15;;;;;;;2.60;0.70;;;18.50;99.90;;;;;;4760371;29;20054;-78
2021/07/06 04:46:42;;;;;;;2.88;0.60;;;18.60;99.90;;;;;;4782359;29;20061;-78
2021/07/06 04:49:09;;;;;;;4.75;0.50;;;18.60;99.90;;;;;;4785125;29;20046;-78
2021/07/06 04:51:36;;;;;;;9.80;0.90;;;18.60;99.90;;;;;;4802986;29;20031;-78
2021/07/06 04:54:02;;;;;;;1.10;0.50;;;18.60;99.90;;;;;;4787770;29;20050;-78
2021/07/06 04:56:29;;;;;;;1.10;0.60;;;18.70;99.90;;;;;;4788933;29;20047;-78
2021/07/06 04:58:56;;;;;;;1.70;0.52;;;18.70;99.90;;;;;;4770769;29;20046;-78
2021/07/06 05:01:23;;;;;;;2.38;0.70;;;18.80;99.90;;;;;;4789061;29;20053;-78
2021/07/06 05:03:50;;;;;;;2.60;0.70;;;18.80;99.90;;;;;;4774647;29;20047;-77
2021/07/06 05:06:18;;;;;;;1.58;0.60;;;18.90;99.90;;;;;;4786938;29;20050;-77
2021/07/06 05:08:45;;;;;;;3.90;0.50;;;18.90;99.90;;;;;;4803054;29;20051;-78
2021/07/06 05:11:13;;;;;;;2.85;0.50;;;18.90;99.90;;;;;;4788582;29;20049;-78
2021/07/06 05:13:39;;;;;;;1.70;0.68;;;19.00;99.90;;;;;;4789403;29;20047;-77
2021/07/06 05:16:06;;;;;;;5.30;0.82;;;19.10;99.90;;;;;;4809256;29;20491;-78
2021/07/06 05:18:32;;;;;;;2.15;0.50;;;19.10;99.90;;;;;;4770538;29;20057;-78
2021/07/06 05:20:59;;;;;;;3.05;0.65;;;19.20;99.90;;;;;;4754885;29;20545;-78
2021/07/06 05:23:26;;;;;;;2.10;0.50;;;19.20;99.90;;;;;;4796896;29;20054;-78
2021/07/06 05:25:52;;;;;;;1.60;0.50;;;19.30;99.90;;;;;;4798994;29;20046;-78
2021/07/06 05:28:19;;;;;;;2.83;0.50;;;19.30;99.90;;;;;;4771082;29;21084;-79
2021/07/06 05:30:48;;;;;;;1.88;0.50;;;19.40;99.90;;;;;;4772854;29;20038;-79
2021/07/06 05:33:14;;;;;;;2.03;0.50;;;19.40;99.90;;;;;;4805137;29;20054;-78
2021/07/06 05:35:40;;;;;;;2.65;0.50;;;19.40;99.90;;;;;;4782396;29;20039;-78
2021/07/06 05:38:07;;;;;;;3.88;0.57;;;19.40;99.90;;;;;;4789127;29;20058;-78
2021/07/06 05:40:38;;;;;;;1.52;0.47;;;19.40;99.90;;;;;;4786800;29;20058;-78
2021/07/06 05:43:18;;;;;;;3.70;0.60;;;19.40;99.90;;;;;;4771257;29;20059;-78
2021/07/06 05:45:52;;;;;;;2.10;0.60;;;19.50;99.90;;;;;;4788994;29;20042;-78
2021/07/06 05:48:19;;;;;;;2.53;0.68;;;19.50;99.90;;;;;;4788586;29;20050;-78
2021/07/06 05:50:46;;;;;;;1.42;0.68;;;19.50;99.90;;;;;;4755530;29;20051;-79
2021/07/06 05:53:13;;;;;;;3.42;0.55;;;19.50;99.90;;;;;;4782367;29;20042;-78
2021/07/06 05:55:41;;;;;;;3.30;0.57;;;19.50;99.90;;;;;;4801096;29;20043;-78
2021/07/06 05:58:07;;;;;;;1.55;0.50;;;19.50;99.90;;;;;;4770490;29;20051;-78
2021/07/06 06:00:34;;;;;;;0.98;0.47;;;19.60;99.90;;;;;;4801109;29;20061;-78
2021/07/06 06:03:01;;;;;;;0.77;0.45;;;19.60;99.90;;;;;;4788380;29;20490;-78
2021/07/06 06:05:28;;;;;;;4.43;0.60;;;19.60;99.90;;;;;;4784013;29;20038;-78
2021/07/06 06:07:55;;;;;;;1.70;0.52;;;19.70;99.90;;;;;;4787640;29;20038;-78
2021/07/06 06:10:21;;;;;;;4.40;0.60;;;19.70;99.90;;;;;;4766426;29;20042;-78
2021/07/06 06:12:54;;;;;;;2.42;0.70;;;19.70;99.90;;;;;;4781841;29;20042;-78
2021/07/06 06:15:20;;;;;;;3.25;0.55;;;19.70;99.90;;;;;;4780437;29;20055;-78
2021/07/06 06:17:47;;;;;;;2.80;0.60;;;19.80;99.90;;;;;;4767664;29;20054;-78
2021/07/06 06:20:14;;;;;;;1.08;0.55;;;19.80;99.90;;;;;;4771425;29;20050;-77
2021/07/06 06:22:40;;;;;;;3.33;0.90;;;19.80;99.90;;;;;;4784160;29;20055;-78
2021/07/06 06:25:08;;;;;;;2.42;0.60;;;19.90;99.90;;;;;;4772596;29;20057;-78
2021/07/06 06:27:35;;;;;;;3.60;0.73;;;19.90;99.90;;;;;;4800416;29;20035;-78
2021/07/06 06:30:09;;;;;;;3.03;0.80;;;19.90;99.90;;;;;;4786153;29;20035;-80
2021/07/06 06:32:36;;;;;;;2.60;0.60;;;19.90;99.90;;;;;;4771128;29;20047;-79
2021/07/06 06:35:04;;;;;;;1.13;0.50;;;20.00;99.90;;;;;;4770521;29;20047;-78
2021/07/06 06:37:30;;;;;;;2.95;0.70;;;20.00;99.90;;;;;;4801419;29;20047;-78
2021/07/06 06:39:57;;;;;;;1.75;0.50;;;20.00;99.90;;;;;;4782154;29;20643;-78
2021/07/06 06:42:23;;;;;;;2.38;0.50;;;20.00;99.90;;;;;;4772050;29;20046;-78
2021/07/06 06:44:50;;;;;;;1.23;0.50;;;20.10;99.90;;;;;;4768265;29;20062;-79
2021/07/06 06:47:17;;;;;;;1.63;0.50;;;20.10;99.90;;;;;;4802963;29;20034;-80
2021/07/06 06:49:44;;;;;;;5.32;3.67;;;20.10;99.90;;;;;;4787319;29;20047;-80
2021/07/06 06:52:10;;;;;;;2.10;1.17;;;20.10;99.90;;;;;;4761064;29;20410;-79
2021/07/06 06:54:39;;;;;;;4.03;1.30;;;20.10;99.90;;;;;;4791211;29;20407;-80
2021/07/06 06:57:08;;;;;;;2.50;0.70;;;20.20;99.90;;;;;;4764985;29;20477;-79
2021/07/06 06:59:34;;;;;;;2.28;0.63;;;20.20;99.90;;;;;;4806638;29;20034;-79
2021/07/06 07:02:22;;;;;;;2.60;0.60;;;20.20;99.90;;;;;;4762820;29;20468;-79
2021/07/06 07:04:51;;;;;;;1.80;0.50;;;20.30;99.90;;;;;;4763996;29;20042;-79
2021/07/06 07:07:20;;;;;;;1.52;0.52;;;20.30;99.90;;;;;;4788647;29;20047;-78
2021/07/06 07:09:47;;;;;;;2.00;0.60;;;20.40;99.90;;;;;;4787734;29;20035;-79
2021/07/06 07:12:13;;;;;;;3.67;2.40;;;20.40;99.90;;;;;;4772062;29;20058;-78
2021/07/06 07:14:41;;;;;;;5.75;1.00;;;20.40;99.90;;;;;;4777178;29;20416;-79
2021/07/06 07:17:09;;;;;;;2.25;0.60;;;20.50;99.90;;;;;;4786294;29;20047;-79
2021/07/06 07:19:36;;;;;;;2.00;0.73;;;20.50;99.90;;;;;;4787746;29;20042;-79
2021/07/06 07:22:04;;;;;;;1.85;0.70;;;20.60;99.90;;;;;;4790797;29;20058;-78
2021/07/06 07:24:30;;;;;;;2.92;0.60;;;20.70;99.90;;;;;;4775502;29;20058;-78
2021/07/06 07:26:57;;;;;;;1.60;0.50;;;20.70;99.90;;;;;;4804094;29;20075;-79
2021/07/06 07:29:24;;;;;;;1.73;0.55;;;20.80;99.90;;;;;;4789050;29;20541;-78
2021/07/06 07:31:51;;;;;;;1.27;0.60;;;20.90;99.90;;;;;;4775288;29;20042;-78
2021/07/06 07:34:20;;;;;;;1.88;0.60;;;21.00;99.90;;;;;;4756270;29;20046;-78
2021/07/06 07:36:50;;;;;;;4.82;0.70;;;21.10;99.90;;;;;;4786788;29;20050;-82
2021/07/06 07:39:16;;;;;;;1.77;0.60;;;21.10;99.90;;;;;;4785379;29;20050;-81
2021/07/06 07:41:43;;;;;;;4.13;0.98;;;21.10;99.90;;;;;;4774245;29;20054;-81
2021/07/06 07:44:10;;;;;;;2.30;0.70;;;21.10;99.90;;;;;;4788755;29;20057;-81
2021/07/06 07:46:37;;;;;;;2.05;0.75;;;21.10;99.90;;;;;;4785759;29;20394;-81
2021/07/06 07:49:04;;;;;;;1.85;0.73;;;21.20;99.90;;;;;;4784389;29;20403;-81
2021/07/06 07:51:30;;;;;;;2.25;0.50;;;21.10;99.90;;;;;;4769212;29;20058;-82
2021/07/06 07:53:57;;;;;;;1.63;0.40;;;21.10;99.90;;;;;;4784720;29;20055;-83
2021/07/06 07:56:24;;;;;;;2.95;0.73;;;21.10;99.90;;;;;;4802252;29;20035;-82
2021/07/06 07:58:50;;;;;;;3.05;0.40;;;21.10;99.90;;;;;;4783444;29;20398;-81
2021/07/06 08:01:16;;;;;;;2.40;0.73;;;21.10;99.90;;;;;;4769797;29;20499;-80
2021/07/06 08:03:43;;;;;;;1.77;0.30;;;21.10;99.90;;;;;;4805951;29;20043;-79
2021/07/06 08:06:10;;;;;;;1.88;0.30;;;21.30;99.90;;;;;;4741879;29;20062;-79
2021/07/06 08:08:37;;;;;;;0.75;0.30;;;21.30;99.40;;;;;;4757905;29;20054;-79
2021/07/06 08:11:03;;;;;;;1.35;0.40;;;21.50;99.40;;;;;;4803835;29;20057;-80
2021/07/06 08:13:33;;;;;;;2.80;0.40;;;21.60;98.80;;;;;;4741408;29;20066;-80
2021/07/06 08:16:00;;;;;;;2.55;0.50;;;21.60;98.20;;;;;;4778268;29;20058;-79
2021/07/06 08:18:27;;;;;;;1.70;0.30;;;21.70;98.00;;;;;;4770421;29;20055;-80
2021/07/06 08:20:53;;;;;;;0.60;0.30;;;21.70;98.10;;;;;;4756695;29;20549;-79
2021/07/06 08:23:20;;;;;;;0.75;0.28;;;21.80;97.60;;;;;;4786089;29;20054;-79
2021/07/06 08:25:46;;;;;;;2.00;0.28;;;21.80;97.50;;;;;;4789396;29;20101;-79
2021/07/06 08:28:12;;;;;;;1.02;0.30;;;21.70;97.20;;;;;;4783032;29;20043;-80
2021/07/06 08:30:39;;;;;;;1.45;0.30;;;21.70;97.10;;;;;;4774129;29;20053;-79
2021/07/06 08:33:07;;;;;;;1.63;0.40;;;21.70;97.10;;;;;;4779921;29;20046;-79
2021/07/06 08:35:33;;;;;;;1.33;0.30;;;21.70;96.60;;;;;;4769499;29;20050;-79
2021/07/06 08:38:01;;;;;;;2.55;0.30;;;21.80;96.70;;;;;;4771920;29;20043;-79
2021/07/06 08:40:28;;;;;;;1.02;0.40;;;21.80;96.70;;;;;;4787374;29;20051;-79
2021/07/06 08:43:21;;;;;;;0.60;0.30;;;22.00;96.70;;;;;;4801061;29;20483;-78
2021/07/06 08:45:47;;;;;;;1.30;0.30;;;22.30;96.20;;;;;;4783082;29;20049;-86
2021/07/06 08:48:15;;;;;;;0.30;0.22;;;22.60;95.80;;;;;;4769386;29;20771;-87
2021/07/06 08:50:45;;;;;;;3.63;1.02;;;23.00;95.00;;;;;;4770442;29;20053;-87
2021/07/06 08:53:12;;;;;;;1.52;0.95;;;23.20;94.70;;;;;;4791187;29;20560;-80
2021/07/06 08:55:38;;;;;;;3.35;1.85;;;23.30;94.30;;;;;;4757945;29;20047;-77
2021/07/06 08:58:05;;;;;;;3.47;0.55;;;23.30;94.10;;;;;;4782443;29;20046;-79
2021/07/06 09:00:31;;;;;;;0.95;0.30;;;23.30;93.30;;;;;;4737655;29;20070;-80
2021/07/06 09:03:04;;;;;;;2.92;0.30;;;23.10;92.80;;;;;;4747918;29;20059;-78
2021/07/06 09:05:32;;;;;;;1.27;0.30;;;23.10;92.90;;;;;;4773103;29;20050;-78
2021/07/06 09:07:59;;;;;;;3.55;0.30;;;23.10;92.90;;;;;;4803491;29;20050;-80
2021/07/06 09:10:37;;;;;;;0.95;0.43;;;23.30;93.10;;;;;;4774844;29;20046;-80
2021/07/06 09:13:24;;;;;;;1.00;0.30;;;23.50;92.10;;;;;;4760749;29;20051;-79
2021/07/06 09:15:55;;;;;;;2.65;0.30;;;23.70;91.80;;;;;;4771345;29;20043;-78
2021/07/06 09:18:28;;;;;;;;;;;23.80;91.50;;;;;;4757665;29;20046;-78
2021/07/06 09:21:04;;;;;;;;;;;23.90;91.40;;;;;;4770098;29;19928;-79
2021/07/06 09:23:45;;;;;;;1.15;0.45;;;23.90;91.20;;;;;;4801384;29;19924;-78
2021/07/06 09:26:15;;;;;;;1.48;0.30;;;23.90;91.00;;;;;;4773816;29;21626;-78
2021/07/06 09:28:46;;;;;;;1.58;0.30;;;23.80;90.80;;;;;;4789142;29;20058;-79
2021/07/06 09:31:34;;;;;;;3.17;0.20;;;23.70;90.90;;;;;;4786906;29;20039;-78
2021/07/06 09:34:06;;;;;;;1.02;0.30;;;23.70;91.30;;;;;;4778945;29;20046;-78
2021/07/06 09:36:45;;;;;;;3.50;0.55;;;23.90;90.80;;;;;;4787293;29;20043;-79
2021/07/06 09:39:20;;;;;;;4.57;0.90;;;24.20;90.70;;;;;;4772249;29;20488;-80
2021/07/06 09:42:01;;;;;;;1.73;0.50;;;24.60;90.20;;;;;;4783641;29;20511;-79
2021/07/06 09:44:32;;;;;;;1.35;0.30;;;24.80;89.10;;;;;;4769297;29;20062;-79
2021/07/06 09:47:03;;;;;;;4.22;0.50;;;25.00;87.60;;;;;;4770515;29;20051;-78
2021/07/06 09:49:38;;;;;;;2.58;0.30;;;24.90;86.90;;;;;;4788566;29;20054;-79
2021/07/06 09:52:12;;;;;;;1.13;0.20;;;24.90;86.80;;;;;;4801272;29;20042;-78
2021/07/06 09:54:45;;;;;;;1.42;0.35;;;24.80;85.90;;;;;;4796006;29;20573;-78
2021/07/06 09:57:23;;;;;;;1.90;0.30;;;24.70;87.00;;;;;;4770024;29;20050;-78
2021/07/06 09:59:58;;;;;;;5.53;0.40;;;24.60;87.00;;;;;;4783557;29;20054;-78
2021/07/06 10:02:27;;;;;;;2.80;0.30;;;24.50;86.50;;;;;;4787441;29;20054;-78
2021/07/06 10:04:56;;;;;;;1.35;0.22;;;24.30;86.20;;;;;;4767879;29;20050;-78
2021/07/06 10:07:25;;;;;;;0.85;0.20;;;24.10;87.20;;;;;;4766042;29;20514;-78
2021/07/06 10:09:53;;;;;;;1.77;0.30;;;23.90;87.20;;;;;;4768169;29;20078;-78
2021/07/06 10:12:21;;;;;;;2.03;0.30;;;23.80;87.10;;;;;;4786547;29;20035;-77
2021/07/06 10:14:48;;;;;;;2.03;0.50;;;23.70;87.40;;;;;;4770041;29;20054;-78
2021/07/06 10:17:15;;;;;;;0.60;0.30;;;23.70;87.80;;;;;;4785211;29;20085;-78
2021/07/06 10:19:43;;;;;;;2.20;0.30;;;23.90;87.70;;;;;;4753391;29;20069;-78
2021/07/06 10:22:13;;;;;;;1.80;0.32;;;24.20;87.20;;;;;;4771062;29;20067;-77
2021/07/06 10:24:47;;;;;;;1.55;0.40;;;24.40;86.10;;;;;;4798831;29;20077;-78
2021/07/06 10:27:27;;;;;;;1.48;0.22;;;24.60;85.90;;;;;;4780421;29;20047;-80
2021/07/06 10:30:16;;;;;;;2.80;0.32;;;24.70;85.30;;;;;;4788371;29;20060;-78
2021/07/06 10:32:53;;;;;;;2.83;0.30;;;24.80;84.50;;;;;;4772420;29;20051;-79
2021/07/06 10:35:50;;;;;;;2.20;0.50;;;24.90;84.40;;;;;;4767162;29;20062;-80
2021/07/06 10:38:29;;;;;;;0.95;0.30;;;25.10;84.10;;;;;;4761166;29;20055;-80
2021/07/06 10:41:01;;;;;;;3.58;0.40;;;25.40;83.50;;;;;;4768112;29;20093;-80
2021/07/06 10:43:31;;;;;;;2.53;0.40;;;25.60;82.70;;;;;;4766365;29;20536;-80
2021/07/06 10:46:20;;;;;;;2.50;0.47;;;25.70;81.70;;;;;;4770277;29;20058;-80
2021/07/06 10:48:57;;;;;;;1.40;0.30;;;25.70;81.50;;;;;;4776085;29;20058;-79
2021/07/06 10:51:39;;;;;;;3.38;0.30;;;25.80;80.10;;;;;;4768630;29;20058;-78
2021/07/06 10:54:06;;;;;;;3.03;0.40;;;26.00;80.50;;;;;;4802451;29;20057;-78
2021/07/06 10:56:38;;;;;;;3.35;0.40;;;26.30;78.10;;;;;;4789311;29;20073;-77
2021/07/06 10:59:05;;;;;;;3.35;0.47;;;26.20;77.50;;;;;;4787427;29;20049;-82
2021/07/06 11:01:41;;;;;;;5.15;1.80;;;26.00;76.90;;;;;;4784962;29;20035;-80
2021/07/06 11:04:10;;;;;;;3.20;0.47;;;25.60;77.20;;;;;;4769774;29;20882;-81
2021/07/06 11:06:48;;;;;;;1.77;0.40;;;25.30;78.60;;;;;;4767419;29;20046;-81
2021/07/06 11:09:17;;;;;;;3.05;0.30;;;25.30;79.50;;;;;;4782354;29;20034;-79
2021/07/06 11:11:44;;;;;;;5.68;0.88;;;25.30;77.40;;;;;;4784839;29;20399;-78
2021/07/06 11:14:21;;;;;;;4.90;0.60;;;25.30;77.10;;;;;;4755643;29;20054;-80
2021/07/06 11:17:02;;;;;;;4.00;0.40;;;25.40;77.70;;;;;;4742400;29;20612;-78
2021/07/06 11:19:54;;;;;;;1.95;0.38;;;25.70;75.30;;;;;;4768763;29;20046;-78
2021/07/06 11:22:21;;;;;;;4.80;0.45;;;26.10;74.50;;;;;;4757617;29;20066;-78
2021/07/06 11:24:48;;;;;;;3.13;0.43;;;26.50;69.80;;;;;;4802761;29;20502;-79
2021/07/06 11:27:36;;;;;;;1.50;0.47;;;26.70;69.40;;;;;;4767925;29;20042;-78
2021/07/06 11:30:22;;;;;;;5.53;0.90;;;26.90;68.60;;;;;;4782609;29;20499;-78
2021/07/06 11:33:08;;;;;;;5.60;0.40;;;27.10;65.20;;;;;;4788368;29;20043;-79
2021/07/06 11:35:41;;;;;;;5.28;0.40;;;26.90;65.20;;;;;;4801313;29;20045;-78
2021/07/06 11:38:28;;;;;;;4.03;0.60;;;26.50;66.00;;;;;;4774896;29;20043;-78
2021/07/06 11:40:57;;;;;;;5.50;0.70;;;26.40;67.40;;;;;;4801643;29;20411;-78
2021/07/06 11:43:26;;;;;;;4.10;0.50;;;26.70;67.50;;;;;;4775577;29;20065;-78
2021/07/06 11:46:13;;;;;;;9.07;0.63;;;27.10;66.00;;;;;;4790606;29;20045;-77
2021/07/06 11:48:41;;;;;;;4.22;0.70;;;27.20;64.10;;;;;;4785647;29;20069;-78
2021/07/06 11:51:10;;;;;;;5.00;0.80;;;27.00;63.60;;;;;;4784625;29;20054;-78
2021/07/06 11:53:45;;;;;;;2.65;0.50;;;26.80;64.20;;;;;;4798294;29;20831;-77
2021/07/06 11:56:13;;;;;;;3.67;0.40;;;27.10;62.80;;;;;;4800626;29;20053;-78
2021/07/06 11:58:40;;;;;;;3.25;0.60;;;27.30;60.10;;;;;;4784740;29;20042;-77
2021/07/06 12:01:10;;;;;;;1.88;0.32;;;27.30;59.00;;;;;;4783635;29;20042;-78
2021/07/06 12:03:38;;;;;;;5.00;0.47;;;27.00;59.90;;;;;;4769489;29;20050;-78
2021/07/06 12:06:12;;;;;;;4.05;0.38;;;26.70;59.50;;;;;;4769397;29;20133;-78
2021/07/06 12:08:44;;;;;;;4.65;0.50;;;26.30;59.50;;;;;;4785900;29;20046;-78
2021/07/06 12:11:10;;;;;;;3.30;0.50;;;26.10;60.10;;;;;;4773286;29;20058;-77
2021/07/06 12:13:44;;;;;;;2.17;0.50;;;26.00;60.60;;;;;;4771205;29;20051;-79
2021/07/06 12:16:18;;;;;;;5.25;0.68;;;26.00;61.00;;;;;;4786521;29;20042;-78
2021/07/06 12:18:57;;;;;;;4.03;0.50;;;26.00;61.20;;;;;;4801760;29;20070;-78
2021/07/06 12:21:29;;;;;;;2.15;0.40;;;26.10;61.40;;;;;;4788036;29;20050;-78
2021/07/06 12:24:00;;;;;;;2.35;0.40;;;26.30;61.30;;;;;;4768827;29;20066;-77
2021/07/06 12:26:28;;;;;;;3.75;0.47;;;26.40;61.20;;;;;;4785675;29;20069;-79
2021/07/06 12:28:54;;;;;;;4.35;0.52;;;26.50;60.00;;;;;;4755734;29;20059;-79
2021/07/06 12:31:30;;;;;;;2.22;0.50;;;26.80;59.50;;;;;;4791179;29;20050;-78
2021/07/06 12:34:07;;;;;;;6.78;0.50;;;26.90;58.80;;;;;;4782448;29;20043;-78
2021/07/06 12:36:47;;;;;;;3.63;0.60;;;26.90;59.20;;;;;;4766062;29;20043;-79
2021/07/06 12:39:18;;;;;;;3.13;0.30;;;26.90;59.30;;;;;;4785003;29;20038;-79
2021/07/06 12:41:48;;;;;;;4.28;0.40;;;26.70;58.10;;;;;;4803754;29;20034;-80
2021/07/06 12:44:39;;;;;;;5.05;0.50;;;26.50;59.00;;;;;;4776083;29;20051;-79
2021/07/06 12:47:18;;;;;;;1.92;0.45;;;26.30;59.70;;;;;;4791816;29;20058;-79
2021/07/06 12:49:51;;;;;;;2.92;0.30;;;26.40;59.10;;;;;;4784855;29;20053;-79
2021/07/06 12:52:19;;;;;;;3.97;0.65;;;26.50;57.90;;;;;;4785604;29;20039;-80
2021/07/06 12:54:46;;;;;;;3.70;0.70;;;26.80;57.70;;;;;;4756940;29;20054;-81
2021/07/06 12:57:29;;;;;;;4.85;0.57;;;26.90;57.40;;;;;;4804674;29;21310;-81
2021/07/06 13:00:10;;;;;;;3.83;0.45;;;26.70;56.80;;;;;;4785136;29;20050;-80
2021/07/06 13:03:09;;;;;;;2.03;0.55;;;26.30;58.10;;;;;;4790559;29;20042;-85